| Date | Time | Temp. (oF) | Dew Point (oF) | Rel. Hum. (%) | Press. (in.) | Wind Dir. | Wind Speed (mph) | Hourly Rainfall (in.) |
|
|---|---|---|---|---|---|---|---|---|---|
| 1 | 12/11 | 00:00 | 24 | 6 | 47 | 30.01 | WNW | 8 | 0.00 |
| 2 | 12/10 | 23:00 | 25 | 6 | 45 | 29.98 | W | 8 | 0.00 |
| 3 | 12/10 | 22:00 | 26 | 8 | 47 | 29.95 | NW | 12 | 0.00 |
| 4 | 12/10 | 21:00 | 27 | 10 | 50 | 29.92 | NW | 11 | 0.00 |
| 5 | 12/10 | 20:00 | 28 | 11 | 50 | 29.91 | NW | 5 | 0.00 |
| 6 | 12/10 | 19:00 | 30 | 13 | 49 | 29.89 | WSW | 11 | 0.00 |
| 7 | 12/10 | 18:00 | 30 | 12 | 48 | 29.85 | WNW | 12 | 0.00 |
| 8 | 12/10 | 17:00 | 32 | 16 | 53 | 29.81 | WNW | 11 | 0.00 |
| 9 | 12/10 | 16:00 | 34 | 19 | 54 | 29.78 | SW | 3 | 0.00 |
| 10 | 12/10 | 15:00 | 34 | 18 | 53 | 29.75 | NW | 7 | 0.00 |
| 11 | 12/10 | 14:00 | 36 | 20 | 53 | 29.72 | SW | 9 | 0.00 |
| 12 | 12/10 | 13:00 | 38 | 21 | 52 | 29.71 | WSW | 13 | 0.00 |
| 13 | 12/10 | 12:00 | 36 | 20 | 54 | 29.72 | SW | 12 | 0.00 |
| 14 | 12/10 | 11:00 | 35 | 20 | 56 | 29.72 | WNW | 4 | 0.00 |
| 15 | 12/10 | 10:00 | 38 | 22 | 53 | 29.70 | WSW | 7 | 0.00 |
| 16 | 12/10 | 09:00 | 35 | 19 | 53 | 29.68 | W | 9 | 0.00 |
| 17 | 12/10 | 08:00 | 35 | 21 | 57 | 29.65 | SW | 7 | 0.00 |
| 18 | 12/10 | 07:00 | 35 | 21 | 58 | 29.62 | W | 7 | 0.00 |
| 19 | 12/10 | 06:00 | 36 | 21 | 56 | 29.61 | WNW | 5 | 0.00 |
| 20 | 12/10 | 05:00 | 37 | 23 | 59 | 29.57 | W | 5 | 0.00 |
| 21 | 12/10 | 04:00 | 38 | 24 | 59 | 29.54 | W | 7 | 0.00 |
| 22 | 12/10 | 03:00 | 39 | 24 | 55 | 29.52 | W | 11 | 0.00 |
| 23 | 12/10 | 02:00 | 41 | 26 | 56 | 29.48 | W | 16 | 0.00 |
| 24 | 12/10 | 01:00 | 42 | 26 | 53 | 29.47 | SW | 7 | 0.00 |